createdAt,value
2022-08-01T00:00:53.713Z,101293.53
2022-08-01T00:03:21.510Z,101289.78
2022-08-01T00:05:49.879Z,101292.22
2022-08-01T00:08:17.665Z,101289.41
2022-08-01T00:10:45.572Z,101299.81
2022-08-01T00:13:13.346Z,101304.38
2022-08-01T00:15:41.204Z,101306.50
2022-08-01T00:18:21.012Z,101307.31
2022-08-01T00:20:48.808Z,101300.69
2022-08-01T00:23:16.624Z,101300.25
2022-08-01T00:25:44.446Z,101305.94
2022-08-01T00:28:12.401Z,101306.00
2022-08-01T00:30:40.165Z,101292.13
2022-08-01T00:33:07.958Z,101295.06
2022-08-01T00:35:37.376Z,101288.47
2022-08-01T00:38:05.239Z,101279.66
2022-08-01T00:40:33.060Z,101275.91
2022-08-01T00:43:00.873Z,101268.81
2022-08-01T00:45:29.055Z,101267.59
2022-08-01T00:47:56.891Z,101265.59
2022-08-01T00:50:25.611Z,101260.94
2022-08-01T00:52:56.891Z,101254.47
2022-08-01T00:55:25.020Z,101246.66
2022-08-01T00:58:03.126Z,101242.34
2022-08-01T01:00:34.773Z,101235.53
2022-08-01T01:03:20.379Z,101228.13
2022-08-01T01:05:58.313Z,101217.50
2022-08-01T01:08:36.070Z,101220.84
2022-08-01T01:11:10.954Z,101222.91
2022-08-01T01:13:49.591Z,101215.63
2022-08-01T01:16:21.058Z,101219.66
2022-08-01T01:18:51.750Z,101221.44
2022-08-01T01:21:59.954Z,101221.69
2022-08-01T01:24:38.308Z,101213.00
2022-08-01T01:27:15.292Z,101219.66
2022-08-01T01:29:59.732Z,101215.25
2022-08-01T01:32:35.183Z,101212.06
2022-08-01T01:35:07.560Z,101217.97
2022-08-01T01:37:37.569Z,101212.91
2022-08-01T01:40:07.701Z,101212.25
2022-08-01T01:42:36.566Z,101214.28
2022-08-01T01:45:08.481Z,101211.38
2022-08-01T01:47:40.011Z,101210.78
2022-08-01T01:50:10.816Z,101204.69
2022-08-01T01:52:41.931Z,101211.34
2022-08-01T01:55:12.450Z,101214.47
2022-08-01T01:57:42.343Z,101209.56
2022-08-01T02:00:13.447Z,101201.03
2022-08-01T02:02:43.091Z,101207.72
2022-08-01T02:05:13.368Z,101205.97
2022-08-01T02:07:42.280Z,101200.69
2022-08-01T02:10:12.024Z,101200.63
2022-08-01T02:12:43.157Z,101197.47
2022-08-01T02:15:14.637Z,101197.94
2022-08-01T02:17:46.666Z,101203.78
2022-08-01T02:20:15.429Z,101199.44
2022-08-01T02:22:46.741Z,101196.50
2022-08-01T02:25:21.267Z,101202.19
2022-08-01T02:27:56.009Z,101204.75
2022-08-01T02:30:27.936Z,101200.00
2022-08-01T02:33:03.203Z,101203.28
2022-08-01T02:35:34.368Z,101189.88
2022-08-01T02:38:25.748Z,101197.09
2022-08-01T02:40:55.891Z,101190.56
2022-08-01T02:43:26.963Z,101194.50
2022-08-01T02:46:00.674Z,101194.13
2022-08-01T02:48:29.213Z,101192.00
2022-08-01T02:51:00.477Z,101185.31
2022-08-01T02:53:43.753Z,101189.69
2022-08-01T02:56:13.937Z,101192.63
2022-08-01T02:58:43.439Z,101196.59
2022-08-01T03:01:14.832Z,101188.28
2022-08-01T03:03:43.055Z,101186.06
2022-08-01T03:06:11.488Z,101187.50
2022-08-01T03:08:40.769Z,101182.72
2022-08-01T03:11:10.684Z,101189.28
2022-08-01T03:13:40.150Z,101195.66
2022-08-01T03:16:09.129Z,101186.97
2022-08-01T03:18:40.351Z,101189.41
2022-08-01T03:21:10.510Z,101202.44
2022-08-01T03:23:39.298Z,101191.00
2022-08-01T03:26:08.191Z,101189.19
2022-08-01T03:28:37.536Z,101187.94
2022-08-01T03:31:05.472Z,101188.28
2022-08-01T03:33:33.337Z,101186.25
2022-08-01T03:36:04.168Z,101199.34
2022-08-01T03:38:35.151Z,101195.16
2022-08-01T03:41:09.711Z,101194.88
2022-08-01T03:43:42.545Z,101185.81
2022-08-01T03:46:15.685Z,101191.81
2022-08-01T03:48:49.350Z,101187.38
2022-08-01T03:51:20.469Z,101191.94
2022-08-01T03:53:50.651Z,101188.81
2022-08-01T03:56:21.496Z,101191.41
2022-08-01T03:58:50.849Z,101186.47
2022-08-01T04:01:19.908Z,101197.81
2022-08-01T04:03:48.285Z,101188.22
2022-08-01T04:06:16.536Z,101171.94
2022-08-01T04:08:56.469Z,101173.81
2022-08-01T04:11:26.910Z,101151.34
2022-08-01T04:13:55.788Z,101151.38
2022-08-01T04:16:24.500Z,101138.00
2022-08-01T04:18:53.012Z,101142.91
2022-08-01T04:21:25.232Z,101138.59
2022-08-01T04:23:57.977Z,101143.97
2022-08-01T04:26:27.833Z,101160.28
2022-08-01T04:28:57.651Z,101170.78
2022-08-01T04:31:31.070Z,101174.25
2022-08-01T04:34:03.993Z,101180.00
2022-08-01T04:36:35.205Z,101204.22
2022-08-01T04:39:06.706Z,101189.97
2022-08-01T04:41:36.785Z,101205.19
2022-08-01T04:44:05.178Z,101197.84
2022-08-01T04:46:35.719Z,101203.94
2022-08-01T04:49:06.742Z,101209.69
2022-08-01T04:51:35.377Z,101215.94
2022-08-01T04:54:05.507Z,101201.09
2022-08-01T04:56:35.094Z,101215.38
2022-08-01T04:59:20.038Z,101226.53
2022-08-01T05:01:51.532Z,101246.03
2022-08-01T05:04:19.503Z,101250.38
2022-08-01T05:06:47.308Z,101252.22
2022-08-01T05:09:16.987Z,101252.97
2022-08-01T05:11:44.887Z,101267.78
2022-08-01T05:14:12.667Z,101272.03
2022-08-01T05:16:40.467Z,101260.31
2022-08-01T05:19:09.143Z,101257.78
2022-08-01T05:21:37.216Z,101258.97
2022-08-01T05:24:05.675Z,101269.34
2022-08-01T05:26:34.798Z,101265.53
2022-08-01T05:29:05.214Z,101262.88
2022-08-01T05:31:35.133Z,101262.00
2022-08-01T05:34:03.250Z,101262.81
2022-08-01T05:36:31.168Z,101244.59
2022-08-01T05:38:58.965Z,101257.94
2022-08-01T05:41:27.599Z,101270.03
2022-08-01T05:43:56.736Z,101273.09
2022-08-01T05:46:27.500Z,101283.09
2022-08-01T05:48:55.742Z,101285.28
2022-08-01T05:51:24.109Z,101273.91
2022-08-01T05:53:52.129Z,101287.97
2022-08-01T05:56:19.960Z,101280.09
2022-08-01T05:58:47.784Z,101266.03
2022-08-01T06:01:17.148Z,101280.75
2022-08-01T06:03:44.957Z,101278.78
2022-08-01T06:06:12.998Z,101275.84
2022-08-01T06:08:40.770Z,101275.50
2022-08-01T06:11:08.842Z,101276.59
2022-08-01T06:13:48.901Z,101282.25
2022-08-01T06:16:18.893Z,101277.13
2022-08-01T06:18:46.755Z,101271.81
2022-08-01T06:21:14.557Z,101270.38
2022-08-01T06:23:43.239Z,101275.44
2022-08-01T06:26:11.787Z,101286.22
2022-08-01T06:28:39.746Z,101277.72
2022-08-01T06:31:07.658Z,101271.81
2022-08-01T06:33:36.946Z,101296.16
2022-08-01T06:36:05.584Z,101302.94
2022-08-01T06:38:33.564Z,101314.31
2022-08-01T06:41:01.349Z,101318.41
2022-08-01T06:43:29.121Z,101311.69
2022-08-01T06:45:56.976Z,101301.53
2022-08-01T06:48:24.786Z,101299.22
2022-08-01T06:51:08.781Z,101317.22
2022-08-01T06:53:37.782Z,101321.22
2022-08-01T06:56:07.254Z,101323.97
2022-08-01T06:58:35.827Z,101337.97
2022-08-01T07:01:06.856Z,101342.97
2022-08-01T07:03:53.225Z,101343.16
2022-08-01T07:06:25.389Z,101350.69
2022-08-01T07:08:53.592Z,101357.75
2022-08-01T07:11:22.551Z,101353.47
2022-08-01T07:13:50.678Z,101327.91
2022-08-01T07:16:19.752Z,101346.28
2022-08-01T07:18:47.933Z,101359.47
2022-08-01T07:21:39.358Z,101364.09
2022-08-01T07:24:13.027Z,101374.44
2022-08-01T07:26:53.436Z,101365.75
2022-08-01T07:29:24.339Z,101368.00
2022-08-01T07:31:52.359Z,101369.53
2022-08-01T07:34:20.186Z,101371.13
2022-08-01T07:36:48.450Z,101373.25
2022-08-01T07:39:17.616Z,101368.50
2022-08-01T07:42:05.562Z,101368.34
2022-08-01T07:44:33.369Z,101367.47
2022-08-01T07:47:01.239Z,101373.91
2022-08-01T07:49:29.291Z,101380.31
2022-08-01T07:52:03.777Z,101380.97
2022-08-01T07:54:42.444Z,101379.59
2022-08-01T07:57:10.444Z,101375.28
2022-08-01T07:59:38.224Z,101393.09
2022-08-01T08:02:06.475Z,101392.56
2022-08-01T08:04:34.584Z,101399.31
2022-08-01T08:07:02.369Z,101409.66
2022-08-01T08:09:30.178Z,101394.94
2022-08-01T08:11:59.365Z,101406.34
2022-08-01T08:14:32.882Z,101401.06
2022-08-01T08:17:02.018Z,101406.47
2022-08-01T08:19:37.508Z,101402.44
2022-08-01T08:22:07.609Z,101405.59
2022-08-01T08:24:35.730Z,101411.22
2022-08-01T08:27:05.522Z,101401.50
2022-08-01T08:29:33.873Z,101407.81
2022-08-01T08:32:02.358Z,101414.34
2022-08-01T08:34:30.849Z,101419.66
2022-08-01T08:36:59.302Z,101409.91
2022-08-01T08:39:30.469Z,101417.69
2022-08-01T08:42:01.115Z,101423.53
2022-08-01T08:44:30.589Z,101416.28
2022-08-01T08:47:00.236Z,101420.28
2022-08-01T08:49:35.897Z,101420.44
2022-08-01T08:52:09.162Z,101424.56
2022-08-01T08:54:39.090Z,101415.97
2022-08-01T08:57:09.152Z,101411.13
2022-08-01T08:59:39.265Z,101411.19
2022-08-01T09:02:08.255Z,101406.72
2022-08-01T09:04:37.393Z,101394.25
2022-08-01T09:07:07.118Z,101404.13
2022-08-01T09:09:35.261Z,101409.50
2022-08-01T09:12:09.229Z,101410.31
2022-08-01T09:14:48.871Z,101403.81
2022-08-01T09:17:17.477Z,101400.34
2022-08-01T09:19:48.647Z,101392.25
2022-08-01T09:22:19.605Z,101399.69
2022-08-01T09:25:00.559Z,101390.34
2022-08-01T09:27:28.866Z,101365.78
2022-08-01T09:30:10.120Z,101361.00
2022-08-01T09:32:54.254Z,101372.19
2022-08-01T09:35:30.611Z,101368.25
2022-08-01T09:38:15.721Z,101393.38
2022-08-01T09:40:47.781Z,101409.66
2022-08-01T09:43:17.327Z,101404.91
2022-08-01T09:45:49.145Z,101418.31
2022-08-01T09:48:19.030Z,101428.59
2022-08-01T09:50:49.223Z,101428.63
2022-08-01T09:53:30.443Z,101423.41
2022-08-01T09:56:11.747Z,101417.19
2022-08-01T09:58:57.896Z,101436.31
2022-08-01T10:01:36.682Z,101421.53
2022-08-01T10:04:12.122Z,101418.97
2022-08-01T10:06:41.633Z,101425.63
2022-08-01T10:09:09.665Z,101433.41
2022-08-01T10:11:40.077Z,101431.75
2022-08-01T10:14:08.900Z,101430.53
2022-08-01T10:16:38.922Z,101440.88
2022-08-01T10:19:11.372Z,101450.06
2022-08-01T10:21:53.270Z,101462.13
2022-08-01T10:24:28.549Z,101463.53
2022-08-01T10:27:00.846Z,101477.75
2022-08-01T10:29:59.897Z,101478.19
2022-08-01T10:32:28.829Z,101483.66
2022-08-01T10:34:57.634Z,101480.25
2022-08-01T10:37:26.807Z,101493.25
2022-08-01T10:40:13.995Z,101493.84
2022-08-01T10:42:45.267Z,101480.75
2022-08-01T10:45:15.765Z,101492.97
2022-08-01T10:47:51.136Z,101486.72
2022-08-01T10:50:26.683Z,101481.56
2022-08-01T10:53:15.999Z,101508.59
2022-08-01T10:55:52.372Z,101496.47
2022-08-01T10:58:25.058Z,101502.63
2022-08-01T11:01:21.271Z,101513.56
2022-08-01T11:04:04.874Z,101518.75
2022-08-01T11:06:51.795Z,101505.94
2022-08-01T11:09:40.416Z,101515.75
2022-08-01T11:12:13.245Z,101524.53
2022-08-01T11:15:31.014Z,101522.13
2022-08-01T11:18:02.062Z,101520.25
2022-08-01T11:20:34.425Z,101528.81
2022-08-01T11:23:28.417Z,101537.69
2022-08-01T11:26:17.381Z,101558.91
2022-08-01T11:29:05.049Z,101549.22
2022-08-01T11:31:37.889Z,101556.72
2022-08-01T11:34:06.150Z,101566.78
2022-08-01T11:36:58.051Z,101557.84
2022-08-01T11:39:23.972Z,101569.13
2022-08-01T11:41:53.542Z,101578.78
2022-08-01T11:44:26.730Z,101577.97
2022-08-01T11:46:59.995Z,101564.31
2022-08-01T11:49:35.082Z,101559.78
2022-08-01T11:52:07.751Z,101556.63
2022-08-01T11:54:38.211Z,101541.31
2022-08-01T11:57:09.045Z,101546.78
2022-08-01T12:00:02.788Z,101542.16
2022-08-01T12:02:34.982Z,101519.16
2022-08-01T12:05:05.321Z,101508.59
2022-08-01T12:07:38.304Z,101494.66
2022-08-01T12:10:08.773Z,101465.56
2022-08-01T12:12:38.480Z,101432.69
2022-08-01T12:15:10.119Z,101422.19
2022-08-01T12:17:39.652Z,101395.84
2022-08-01T12:20:10.259Z,101386.56
2022-08-01T12:22:39.719Z,101367.38
2022-08-01T12:25:11.468Z,101353.09
2022-08-01T12:27:40.770Z,101342.88
2022-08-01T12:30:13.415Z,101339.03
2022-08-01T12:32:43.440Z,101296.31
2022-08-01T12:35:17.907Z,101274.34
2022-08-01T12:37:49.936Z,101206.97
2022-08-01T12:40:19.687Z,101152.75
2022-08-01T12:42:49.299Z,101004.53
2022-08-01T12:45:20.638Z,101045.22
2022-08-01T12:47:50.034Z,101093.50
2022-08-01T12:50:21.132Z,101138.19
2022-08-01T12:52:51.500Z,101236.44
2022-08-01T12:55:21.072Z,101264.94
2022-08-01T12:57:51.913Z,101289.53
2022-08-01T13:00:22.620Z,101352.50
2022-08-01T13:02:52.382Z,101367.19
2022-08-01T13:05:20.262Z,101427.19
2022-08-01T13:07:52.547Z,101442.84
2022-08-01T13:10:28.778Z,101434.75
2022-08-01T13:12:59.752Z,101401.16
2022-08-01T13:15:32.697Z,101416.81
2022-08-01T13:18:02.058Z,101444.50
2022-08-01T13:20:33.263Z,101453.72
2022-08-01T13:23:21.438Z,101459.22
2022-08-01T13:26:04.023Z,101465.25
2022-08-01T13:28:32.416Z,101460.91
2022-08-01T13:31:01.518Z,101485.84
2022-08-01T13:33:42.763Z,101489.63
2022-08-01T13:36:10.624Z,101483.06
2022-08-01T13:38:57.217Z,101484.41
2022-08-01T13:41:25.124Z,101483.72
2022-08-01T13:43:58.000Z,101477.66
2022-08-01T13:46:27.176Z,101496.38
2022-08-01T13:48:57.603Z,101487.81
2022-08-01T13:51:33.210Z,101470.66
2022-08-01T13:54:02.712Z,101495.09
2022-08-01T13:56:30.725Z,101496.31
2022-08-01T13:58:58.847Z,101487.88
2022-08-01T14:01:29.921Z,101497.59
2022-08-01T14:04:01.853Z,101502.88
2022-08-01T14:06:29.965Z,101492.84
2022-08-01T14:08:57.752Z,101495.63
2022-08-01T14:11:30.395Z,101501.19
2022-08-01T14:14:04.874Z,101504.66
2022-08-01T14:16:38.368Z,101513.56
2022-08-01T14:19:06.154Z,101512.31
2022-08-01T14:21:33.974Z,101517.53
2022-08-01T14:24:01.734Z,101511.38
2022-08-01T14:26:30.961Z,101520.41
2022-08-01T14:28:58.799Z,101512.66
2022-08-01T14:31:28.754Z,101531.00
2022-08-01T14:33:59.965Z,101528.91
2022-08-01T14:36:29.402Z,101522.59
2022-08-01T14:39:00.542Z,101542.53
2022-08-01T14:41:30.901Z,101535.22
2022-08-01T14:44:00.661Z,101528.25
2022-08-01T14:46:28.458Z,101525.41
2022-08-01T14:48:59.305Z,101532.53
2022-08-01T14:51:27.125Z,101532.13
2022-08-01T14:53:54.927Z,101522.31
2022-08-01T14:56:22.716Z,101533.63
2022-08-01T14:58:52.283Z,101540.50
2022-08-01T15:01:20.190Z,101545.78
2022-08-01T15:03:48.986Z,101539.69
2022-08-01T15:06:16.849Z,101534.91
2022-08-01T15:08:45.160Z,101537.06
2022-08-01T15:11:12.997Z,101531.41
2022-08-01T15:13:42.776Z,101535.28
2022-08-01T15:16:12.578Z,101529.28
2022-08-01T15:18:40.653Z,101529.88
2022-08-01T15:21:11.623Z,101533.16
2022-08-01T15:23:42.279Z,101531.41
2022-08-01T15:26:14.618Z,101531.59
2022-08-01T15:28:42.445Z,101528.53
2022-08-01T15:31:13.915Z,101537.97
2022-08-01T15:33:43.500Z,101538.59
2022-08-01T15:36:12.490Z,101538.63
2022-08-01T15:38:43.441Z,101540.69
2022-08-01T15:41:11.285Z,101536.50
2022-08-01T15:43:43.168Z,101536.78
2022-08-01T15:46:13.301Z,101542.25
2022-08-01T15:48:43.033Z,101542.25
2022-08-01T15:51:10.824Z,101540.28
2022-08-01T15:53:38.826Z,101541.50
2022-08-01T15:56:07.076Z,101544.31
2022-08-01T15:58:34.955Z,101550.50
2022-08-01T16:01:02.815Z,101551.00
2022-08-01T16:03:30.693Z,101539.91
2022-08-01T16:06:00.213Z,101552.66
2022-08-01T16:08:28.014Z,101551.63
2022-08-01T16:10:55.786Z,101553.72
2022-08-01T16:13:23.605Z,101548.34
2022-08-01T16:15:51.390Z,101544.53
2022-08-01T16:18:19.237Z,101549.16
2022-08-01T16:20:46.986Z,101558.81
2022-08-01T16:23:16.511Z,101553.66
2022-08-01T16:25:45.089Z,101555.06
2022-08-01T16:28:14.206Z,101555.06
2022-08-01T16:30:47.876Z,101546.50
2022-08-01T16:33:53.318Z,101557.75
2022-08-01T16:36:17.267Z,101553.66
2022-08-01T16:38:47.213Z,101551.75
2022-08-01T16:41:19.615Z,101564.22
2022-08-01T16:43:53.856Z,101556.22
2022-08-01T16:46:23.830Z,101555.72
2022-08-01T16:48:51.770Z,101562.03
2022-08-01T16:51:19.875Z,101554.69
2022-08-01T16:53:49.249Z,101561.44
2022-08-01T16:56:17.143Z,101558.75
2022-08-01T16:58:45.175Z,101556.78
2022-08-01T17:01:59.394Z,101558.16
2022-08-01T17:04:02.214Z,101549.81
2022-08-01T17:06:30.186Z,101558.56
2022-08-01T17:08:59.866Z,101544.34
2022-08-01T17:11:27.672Z,101560.22
2022-08-01T17:13:55.526Z,101565.00
2022-08-01T17:16:23.392Z,101567.56
2022-08-01T17:18:51.209Z,101570.03
2022-08-01T17:21:21.072Z,101562.56
2022-08-01T17:23:48.878Z,101575.19
2022-08-01T17:26:18.083Z,101580.72
2022-08-01T17:28:45.922Z,101578.19
2022-08-01T17:31:13.915Z,101579.44
2022-08-01T17:33:44.501Z,101571.47
2022-08-01T17:36:14.969Z,101581.75
2022-08-01T17:38:44.716Z,101580.22
2022-08-01T17:41:12.462Z,101578.78
2022-08-01T17:43:42.060Z,101581.50
2022-08-01T17:46:09.932Z,101585.25
2022-08-01T17:48:37.751Z,101595.88
2022-08-01T17:51:06.420Z,101598.34
2022-08-01T17:53:34.719Z,101593.50
2022-08-01T17:56:05.741Z,101595.59
2022-08-01T17:58:51.652Z,101588.75
2022-08-01T18:01:22.112Z,101597.69
2022-08-01T18:03:55.027Z,101587.41
2022-08-01T18:06:23.733Z,101594.72
2022-08-01T18:08:53.162Z,101594.31
2022-08-01T18:11:24.762Z,101591.59
2022-08-01T18:13:55.724Z,101596.16
2022-08-01T18:16:25.201Z,101591.34
2022-08-01T18:18:52.995Z,101593.47
2022-08-01T18:21:20.737Z,101592.63
2022-08-01T18:23:51.630Z,101599.97
2022-08-01T18:26:21.011Z,101599.84
2022-08-01T18:28:49.396Z,101589.06
2022-08-01T18:31:20.143Z,101594.63
2022-08-01T18:33:50.040Z,101590.34
2022-08-01T18:36:33.329Z,101593.75
2022-08-01T18:39:04.358Z,101590.44
2022-08-01T18:41:32.926Z,101587.84
2022-08-01T18:44:05.629Z,101588.66
2022-08-01T18:46:36.274Z,101580.69
2022-08-01T18:49:06.717Z,101583.72
2022-08-01T18:51:40.206Z,101587.22
2022-08-01T18:54:10.980Z,101580.94
2022-08-01T18:56:38.804Z,101577.13
2022-08-01T18:59:06.731Z,101577.75
2022-08-01T19:01:34.602Z,101581.09
2022-08-01T19:04:02.714Z,101573.88
2022-08-01T19:06:31.894Z,101572.84
2022-08-01T19:09:02.619Z,101562.19
2022-08-01T19:11:31.839Z,101559.72
2022-08-01T19:14:02.266Z,101549.84
2022-08-01T19:16:30.486Z,101552.16
2022-08-01T19:18:58.230Z,101544.28
2022-08-01T19:21:26.186Z,101542.72
2022-08-01T19:24:12.799Z,101530.28
2022-08-01T19:26:41.433Z,101526.75
2022-08-01T19:29:15.193Z,101506.28
2022-08-01T19:31:48.392Z,101502.22
2022-08-01T19:34:18.165Z,101495.44
2022-08-01T19:36:47.647Z,101492.94
2022-08-01T19:39:21.463Z,101489.13
2022-08-01T19:41:50.934Z,101480.59
2022-08-01T19:44:22.667Z,101468.19
2022-08-01T19:46:51.751Z,101460.78
2022-08-01T19:49:21.593Z,101438.97
2022-08-01T19:51:51.277Z,101428.88
2022-08-01T19:54:22.222Z,101433.06
2022-08-01T19:56:53.714Z,101429.44
2022-08-01T19:59:24.273Z,101441.53
2022-08-01T20:01:54.644Z,101407.66
2022-08-01T20:04:22.544Z,101411.34
2022-08-01T20:06:50.406Z,101420.16
2022-08-01T20:09:18.298Z,101411.59
2022-08-01T20:11:48.858Z,101409.78
2022-08-01T20:14:19.681Z,101413.09
2022-08-01T20:16:48.168Z,101396.50
2022-08-01T20:19:19.626Z,101397.13
2022-08-01T20:22:02.646Z,101418.69
2022-08-01T20:24:38.143Z,101412.44
2022-08-01T20:27:12.104Z,101405.41
2022-08-01T20:29:41.258Z,101402.72
2022-08-01T20:32:09.607Z,101412.91
2022-08-01T20:34:39.522Z,101395.34
2022-08-01T20:37:09.326Z,101391.91
2022-08-01T20:39:43.816Z,101377.22
2022-08-01T20:42:14.001Z,101374.25
2022-08-01T20:44:42.965Z,101384.59
2022-08-01T20:47:11.114Z,101373.91
2022-08-01T20:49:39.371Z,101370.69
2022-08-01T20:52:12.174Z,101365.66
2022-08-01T20:54:41.411Z,101347.38
2022-08-01T20:57:17.285Z,101319.94
2022-08-01T20:59:55.903Z,101333.06
2022-08-01T21:02:42.546Z,101342.75
2022-08-01T21:05:12.481Z,101347.53
2022-08-01T21:07:44.229Z,101355.72
2022-08-01T21:10:15.233Z,101351.75
2022-08-01T21:12:49.491Z,101323.09
2022-08-01T21:15:28.331Z,101295.47
2022-08-01T21:18:02.475Z,101256.88
2022-08-01T21:20:33.637Z,101263.22
2022-08-01T21:23:10.059Z,101271.72
2022-08-01T21:25:38.112Z,101275.53
2022-08-01T21:28:07.277Z,101279.88
2022-08-01T21:30:37.108Z,101275.28
2022-08-01T21:33:06.147Z,101277.19
2022-08-01T21:35:34.957Z,101250.34
2022-08-01T21:38:03.720Z,101263.16
2022-08-01T21:40:33.468Z,101277.03
2022-08-01T21:43:02.792Z,101283.19
2022-08-01T21:45:32.218Z,101273.59
2022-08-01T21:48:00.995Z,101255.94
2022-08-01T21:50:33.135Z,101260.00
2022-08-01T21:53:11.879Z,101263.22
2022-08-01T21:55:54.409Z,101260.44
2022-08-01T21:58:34.623Z,101258.47
2022-08-01T22:01:08.754Z,101237.34
2022-08-01T22:03:43.510Z,101229.47
2022-08-01T22:06:14.511Z,101217.47
2022-08-01T22:08:49.002Z,101212.03
2022-08-01T22:11:20.300Z,101214.69
2022-08-01T22:13:48.113Z,101215.38
2022-08-01T22:16:17.423Z,101205.81
2022-08-01T22:18:46.954Z,101210.81
2022-08-01T22:21:15.179Z,101218.00
2022-08-01T22:23:43.309Z,101217.41
2022-08-01T22:26:12.872Z,101221.75
2022-08-01T22:28:41.497Z,101225.94
2022-08-01T22:31:09.394Z,101225.06
2022-08-01T22:33:39.881Z,101224.75
2022-08-01T22:36:08.243Z,101225.81
2022-08-01T22:38:36.231Z,101235.44
2022-08-01T22:41:07.846Z,101231.13
2022-08-01T22:43:40.950Z,101244.16
2022-08-01T22:46:20.466Z,101249.84
2022-08-01T22:48:52.865Z,101250.00
2022-08-01T22:51:42.951Z,101250.34
2022-08-01T22:54:14.261Z,101264.25
2022-08-01T22:56:46.087Z,101319.50
2022-08-01T22:59:17.767Z,101336.91
2022-08-01T23:01:50.585Z,101325.38
2022-08-01T23:04:33.171Z,101307.16
2022-08-01T23:07:06.104Z,101291.94
2022-08-01T23:09:53.133Z,101290.31
2022-08-01T23:12:24.282Z,101289.78
2022-08-01T23:14:53.905Z,101285.28
2022-08-01T23:17:27.580Z,101282.44
2022-08-01T23:20:01.497Z,101280.47
2022-08-01T23:22:32.086Z,101286.94
2022-08-01T23:25:05.299Z,101283.78
2022-08-01T23:28:04.665Z,101264.72
2022-08-01T23:30:26.942Z,101289.78
2022-08-01T23:32:55.330Z,101306.34
2022-08-01T23:35:25.137Z,101291.47
2022-08-01T23:37:55.814Z,101299.31
2022-08-01T23:40:31.363Z,101303.00
2022-08-01T23:42:59.179Z,101320.69
2022-08-01T23:45:26.939Z,101309.19
2022-08-01T23:47:54.776Z,101298.31
2022-08-01T23:50:24.518Z,101317.69
2022-08-01T23:52:56.506Z,101330.16
2022-08-01T23:55:36.937Z,101350.41
2022-08-01T23:58:06.714Z,101356.72
